Time;durP1;ratioP1;P1;durP2;ratioP2;P2;SDS_P1;SDS_P2;PMS_P1;PMS_P2;Temp;Humidity;BMP_temperature;BMP_pressure;BME280_temperature;BME280_humidity;BME280_pressure;Samples;Min_cycle;Max_cycle;Signal;HPM_P1;HPM_P2
2022/09/08 00:00:15;;;;;;;0.50;0.50;;;18.70;99.90;;;;;;5033242;28;20201;-49
2022/09/08 00:02:42;;;;;;;1.37;0.60;;;18.60;99.90;;;;;;5032157;28;20206;-49
2022/09/08 00:05:14;;;;;;;1.03;1.03;;;18.60;99.90;;;;;;5024662;28;20257;-49
2022/09/08 00:07:42;;;;;;;0.77;0.63;;;18.50;99.90;;;;;;5030300;28;20704;-49
2022/09/08 00:10:11;;;;;;;1.70;0.70;;;18.50;99.90;;;;;;5033717;28;20731;-49
2022/09/08 00:12:42;;;;;;;1.90;0.57;;;18.50;99.90;;;;;;5033317;28;20206;-48
2022/09/08 00:15:10;;;;;;;0.87;0.87;;;18.60;99.90;;;;;;5033102;28;20680;-49
2022/09/08 00:17:37;;;;;;;1.10;1.10;;;18.70;99.90;;;;;;5030762;28;20226;-49
2022/09/08 00:20:05;;;;;;;0.47;0.40;;;18.80;99.90;;;;;;5022961;28;20215;-49
2022/09/08 00:22:34;;;;;;;0.73;0.40;;;18.80;99.90;;;;;;5032013;28;20230;-49
2022/09/08 00:25:01;;;;;;;0.60;0.60;;;18.80;99.90;;;;;;5030204;28;20197;-48
2022/09/08 00:27:27;;;;;;;0.60;0.60;;;18.80;99.90;;;;;;5029274;28;20267;-49
2022/09/08 00:29:54;;;;;;;0.67;0.53;;;18.60;99.90;;;;;;5032817;28;20746;-48
2022/09/08 00:32:23;;;;;;;0.83;0.70;;;18.60;99.90;;;;;;5033188;28;20207;-48
2022/09/08 00:34:50;;;;;;;1.73;0.50;;;18.50;99.90;;;;;;5020642;28;20203;-49
2022/09/08 00:37:18;;;;;;;2.20;0.60;;;18.40;99.90;;;;;;5032555;28;20222;-48
2022/09/08 00:39:48;;;;;;;0.60;0.60;;;18.20;99.90;;;;;;5032709;28;20210;-49
2022/09/08 00:42:15;;;;;;;0.60;0.60;;;18.20;99.90;;;;;;5031762;28;20202;-48
2022/09/08 00:44:48;;;;;;;0.50;0.50;;;18.10;99.90;;;;;;5032782;28;20206;-49
2022/09/08 00:47:20;;;;;;;0.60;0.60;;;18.00;99.90;;;;;;5032451;28;20616;-48
2022/09/08 00:49:52;;;;;;;0.57;0.50;;;18.00;99.90;;;;;;5032524;28;20210;-50
2022/09/08 00:52:19;;;;;;;1.80;0.60;;;18.00;99.90;;;;;;5031856;28;20294;-49
2022/09/08 00:54:49;;;;;;;1.70;0.77;;;17.90;99.90;;;;;;5038446;28;20194;-49
2022/09/08 00:57:17;;;;;;;1.60;0.60;;;17.80;99.90;;;;;;5031548;28;20227;-49
2022/09/08 00:59:45;;;;;;;0.60;0.60;;;17.80;99.90;;;;;;5033173;28;20244;-48
2022/09/08 01:02:24;;;;;;;2.57;0.60;;;17.70;99.90;;;;;;5032336;28;20253;-49
2022/09/08 01:04:55;;;;;;;0.90;0.73;;;17.60;99.90;;;;;;5032013;28;20202;-50
2022/09/08 01:13:12;;;;;;;0.47;0.47;;;17.50;99.90;;;;;;5029255;28;20252;-49
2022/09/08 01:15:39;;;;;;;0.70;0.70;;;17.50;99.90;;;;;;5030362;28;20213;-49
2022/09/08 01:18:06;;;;;;;0.60;0.50;;;17.40;99.90;;;;;;5024492;28;20214;-49
2022/09/08 01:20:41;;;;;;;0.60;0.60;;;17.40;99.90;;;;;;5031389;28;20210;-50
2022/09/08 01:23:30;;;;;;;0.50;0.50;;;17.40;99.90;;;;;;5031349;28;20198;-49
2022/09/08 01:26:12;;;;;;;0.90;0.63;;;17.40;99.90;;;;;;5030758;28;20652;-49
2022/09/08 01:28:46;;;;;;;1.10;0.70;;;17.40;99.90;;;;;;5031103;28;20202;-48
2022/09/08 01:31:14;;;;;;;0.70;0.70;;;17.40;99.90;;;;;;5022720;28;20210;-49
2022/09/08 01:33:42;;;;;;;0.83;0.80;;;17.40;99.90;;;;;;5030920;28;20615;-49
2022/09/08 01:36:09;;;;;;;0.70;0.70;;;17.40;99.90;;;;;;5032035;28;20214;-49
2022/09/08 01:38:37;;;;;;;1.63;0.70;;;17.40;99.90;;;;;;5030379;28;20669;-49
2022/09/08 01:41:04;;;;;;;0.73;0.73;;;17.40;99.90;;;;;;5031480;28;20619;-49
2022/09/08 01:43:31;;;;;;;1.17;0.70;;;17.40;99.90;;;;;;5031201;28;20673;-49
2022/09/08 01:46:00;;;;;;;2.33;0.70;;;17.50;99.90;;;;;;5030962;28;20710;-48
2022/09/08 01:48:27;;;;;;;0.70;0.70;;;17.40;99.90;;;;;;5028362;28;20203;-48
2022/09/08 01:50:58;;;;;;;0.73;0.73;;;17.50;99.90;;;;;;5022399;28;20202;-48
2022/09/08 01:53:25;;;;;;;0.67;0.67;;;17.50;99.90;;;;;;5031893;28;20202;-49
2022/09/08 01:55:52;;;;;;;1.03;0.83;;;17.50;99.90;;;;;;5031288;28;20205;-49
2022/09/08 01:58:20;;;;;;;1.37;1.27;;;17.50;99.90;;;;;;5023584;28;20227;-50
2022/09/08 02:00:47;;;;;;;1.37;1.23;;;17.50;99.90;;;;;;5029542;28;20202;-49
2022/09/08 02:03:19;;;;;;;1.07;1.07;;;17.50;99.90;;;;;;5029340;28;20202;-49
2022/09/08 02:05:46;;;;;;;1.53;1.53;;;17.60;99.90;;;;;;5019664;28;20264;-49
2022/09/08 02:08:13;;;;;;;2.97;1.63;;;17.60;99.90;;;;;;5024062;28;20276;-49
2022/09/08 02:10:40;;;;;;;1.00;1.00;;;17.60;99.90;;;;;;5035285;28;20252;-49
2022/09/08 02:13:08;;;;;;;1.83;1.10;;;17.60;99.90;;;;;;5030670;28;20619;-48
2022/09/08 02:15:35;;;;;;;1.20;1.20;;;17.70;99.90;;;;;;5031291;28;20248;-48
2022/09/08 02:18:02;;;;;;;1.40;1.00;;;17.70;99.90;;;;;;5031046;28;20223;-48
2022/09/08 02:20:30;;;;;;;2.10;0.70;;;17.70;99.90;;;;;;5030829;28;20256;-49
2022/09/08 02:22:57;;;;;;;1.80;1.70;;;17.70;99.90;;;;;;5031031;28;20198;-49
2022/09/08 02:25:24;;;;;;;1.37;1.27;;;17.70;99.90;;;;;;5029407;28;20210;-49
2022/09/08 02:27:53;;;;;;;1.10;1.10;;;17.70;99.90;;;;;;5030649;28;20276;-48
2022/09/08 02:30:20;;;;;;;1.87;1.40;;;17.70;99.90;;;;;;5029689;28;20237;-48
2022/09/08 02:32:48;;;;;;;4.30;2.07;;;17.70;99.90;;;;;;5030685;28;20252;-50
2022/09/08 02:35:15;;;;;;;4.93;2.33;;;17.80;99.90;;;;;;5030593;28;20344;-48
2022/09/08 02:37:44;;;;;;;1.23;1.23;;;17.70;99.90;;;;;;5030728;28;20230;-49
2022/09/08 02:40:12;;;;;;;2.83;1.50;;;17.60;99.90;;;;;;5030864;28;20198;-49
2022/09/08 02:42:39;;;;;;;2.27;1.80;;;17.50;99.90;;;;;;5021192;28;20199;-49
2022/09/08 02:45:08;;;;;;;5.90;2.10;;;17.30;99.90;;;;;;5028628;28;20756;-48
2022/09/08 02:47:35;;;;;;;4.50;1.20;;;17.30;99.90;;;;;;5021960;28;20227;-49
2022/09/08 02:50:02;;;;;;;1.10;1.00;;;17.40;99.90;;;;;;5026526;28;20199;-49
2022/09/08 02:52:31;;;;;;;2.57;1.33;;;17.30;99.90;;;;;;5030272;28;20203;-49
2022/09/08 02:55:00;;;;;;;1.50;0.70;;;17.30;99.90;;;;;;5028479;28;20286;-50
2022/09/08 02:57:27;;;;;;;1.20;0.50;;;17.10;99.90;;;;;;5022492;28;20223;-49
2022/09/08 02:59:54;;;;;;;0.53;0.50;;;17.10;99.90;;;;;;5034180;28;20248;-49
2022/09/08 03:02:21;;;;;;;0.80;0.50;;;17.10;99.90;;;;;;5033510;28;20413;-49
2022/09/08 03:04:49;;;;;;;1.13;0.87;;;17.10;99.90;;;;;;5034329;28;20203;-49
2022/09/08 03:07:17;;;;;;;0.60;0.60;;;17.10;99.90;;;;;;5034387;28;20225;-49
2022/09/08 03:09:44;;;;;;;1.33;0.60;;;17.20;99.90;;;;;;5034440;28;20198;-49
2022/09/08 03:12:13;;;;;;;0.77;0.77;;;17.20;99.90;;;;;;5034417;28;20210;-48
2022/09/08 03:14:40;;;;;;;2.43;1.10;;;17.20;99.90;;;;;;5025145;28;20293;-49
2022/09/08 03:17:07;;;;;;;1.80;1.20;;;17.20;99.90;;;;;;5033231;28;20852;-49
2022/09/08 03:19:34;;;;;;;0.90;0.90;;;17.10;99.90;;;;;;5023442;28;20664;-48
2022/09/08 03:22:01;;;;;;;1.27;1.17;;;17.00;99.90;;;;;;5034360;28;20805;-48
2022/09/08 03:24:28;;;;;;;1.17;0.83;;;17.10;99.90;;;;;;5032990;28;20742;-49
2022/09/08 03:26:55;;;;;;;0.80;0.80;;;17.20;99.90;;;;;;5024730;28;20223;-49
2022/09/08 03:29:23;;;;;;;1.00;1.00;;;17.10;99.90;;;;;;5031563;28;20301;-48
2022/09/08 03:31:50;;;;;;;1.00;0.57;;;17.10;99.90;;;;;;5035542;28;20206;-49
2022/09/08 03:34:17;;;;;;;4.00;0.83;;;17.10;99.90;;;;;;5031070;28;20283;-49
2022/09/08 03:36:45;;;;;;;1.77;0.90;;;17.10;99.90;;;;;;5053854;28;20226;-48
2022/09/08 03:39:12;;;;;;;0.67;0.67;;;17.10;99.90;;;;;;5046863;28;20230;-47
2022/09/08 03:41:39;;;;;;;1.27;0.60;;;17.10;99.90;;;;;;5029099;28;20195;-49
2022/09/08 03:44:06;;;;;;;1.37;0.40;;;17.00;99.90;;;;;;5032831;28;20202;-48
2022/09/08 03:46:34;;;;;;;0.67;0.67;;;17.10;99.90;;;;;;5032134;28;20222;-49
2022/09/08 03:49:01;;;;;;;0.97;0.40;;;17.00;99.90;;;;;;5032343;28;20202;-48
2022/09/08 03:51:28;;;;;;;0.40;0.33;;;16.90;99.90;;;;;;5029248;28;20264;-49
2022/09/08 03:54:46;;;;;;;1.47;0.20;;;16.80;99.90;;;;;;5030676;28;20210;-49
2022/09/08 03:56:49;;;;;;;0.20;0.20;;;16.70;99.90;;;;;;5029937;28;20222;-48
2022/09/08 03:59:16;;;;;;;0.97;0.50;;;16.70;99.90;;;;;;5031774;28;20249;-48
2022/09/08 04:01:45;;;;;;;0.40;0.40;;;16.60;99.90;;;;;;5033171;28;20202;-48
2022/09/08 04:04:12;;;;;;;0.50;0.30;;;16.60;99.90;;;;;;5031015;28;20205;-48
2022/09/08 04:06:39;;;;;;;0.43;0.30;;;16.60;99.90;;;;;;5030556;28;20226;-49
2022/09/08 04:09:06;;;;;;;0.50;0.50;;;16.60;99.90;;;;;;5031788;28;20200;-48
2022/09/08 04:11:34;;;;;;;1.43;0.50;;;16.50;99.90;;;;;;5031731;28;20567;-48
2022/09/08 04:14:03;;;;;;;1.77;0.53;;;16.50;99.90;;;;;;5032014;28;20202;-49
2022/09/08 04:16:31;;;;;;;0.90;0.80;;;16.50;99.90;;;;;;5033012;28;20222;-48
2022/09/08 04:19:01;;;;;;;2.00;0.83;;;16.50;99.90;;;;;;5033732;28;20343;-48
2022/09/08 04:21:28;;;;;;;1.70;1.27;;;16.50;99.90;;;;;;5031630;28;20276;-48
2022/09/08 04:23:55;;;;;;;1.77;0.80;;;16.60;99.90;;;;;;5035250;28;20253;-49
2022/09/08 04:26:22;;;;;;;2.10;1.17;;;16.60;99.90;;;;;;5029636;28;20215;-49
2022/09/08 04:28:49;;;;;;;1.90;1.40;;;16.60;99.90;;;;;;5030763;28;20221;-48
2022/09/08 04:31:19;;;;;;;3.83;1.40;;;16.60;99.90;;;;;;5030577;28;20206;-48
2022/09/08 04:33:46;;;;;;;3.13;0.93;;;16.60;99.90;;;;;;5027494;28;20629;-49
2022/09/08 04:36:17;;;;;;;1.90;1.00;;;16.60;99.90;;;;;;5038247;28;20680;-48
2022/09/08 04:38:45;;;;;;;1.10;1.10;;;16.60;99.90;;;;;;5033460;28;20220;-49
2022/09/08 04:41:14;;;;;;;1.23;0.77;;;16.60;99.90;;;;;;5033154;28;20202;-49
2022/09/08 04:43:42;;;;;;;2.20;0.90;;;16.60;99.90;;;;;;5033850;28;20737;-48
2022/09/08 04:46:12;;;;;;;1.83;0.90;;;16.60;99.90;;;;;;5030903;28;20202;-48
2022/09/08 04:48:40;;;;;;;0.60;0.60;;;16.60;99.90;;;;;;5025211;28;20198;-48
2022/09/08 04:51:08;;;;;;;0.83;0.83;;;16.70;99.90;;;;;;5030746;28;20561;-48
2022/09/08 04:53:37;;;;;;;2.87;1.70;;;16.70;99.90;;;;;;5019469;28;20276;-48
2022/09/08 04:56:05;;;;;;;2.10;0.80;;;16.60;99.90;;;;;;5030767;28;20279;-48
2022/09/08 04:58:33;;;;;;;1.37;1.03;;;16.60;99.90;;;;;;5032322;28;20711;-50
2022/09/08 05:01:04;;;;;;;4.20;1.70;;;16.60;99.90;;;;;;5031440;28;20194;-49
2022/09/08 05:03:32;;;;;;;1.37;1.30;;;16.60;99.90;;;;;;5030668;28;20261;-49
2022/09/08 05:06:04;;;;;;;2.33;1.07;;;16.60;99.90;;;;;;5026215;28;20203;-48
2022/09/08 05:08:32;;;;;;;1.03;0.97;;;16.60;99.90;;;;;;5029404;28;20736;-49
2022/09/08 05:11:01;;;;;;;0.90;0.90;;;16.60;99.90;;;;;;5030566;28;20195;-49
2022/09/08 05:13:29;;;;;;;1.03;1.03;;;16.60;99.90;;;;;;5026684;28;20465;-50
2022/09/08 05:16:02;;;;;;;0.80;0.80;;;16.60;99.90;;;;;;5031157;28;20446;-49
2022/09/08 05:18:29;;;;;;;2.27;0.80;;;16.60;99.90;;;;;;5030141;28;20210;-50
2022/09/08 05:20:57;;;;;;;1.37;0.60;;;16.60;99.90;;;;;;5028216;28;20202;-50
2022/09/08 05:23:24;;;;;;;0.87;0.70;;;16.50;99.90;;;;;;5026413;28;20199;-49
2022/09/08 05:26:00;;;;;;;1.70;0.40;;;16.50;99.90;;;;;;5028642;28;20210;-49
2022/09/08 05:28:31;;;;;;;0.30;0.30;;;16.50;99.90;;;;;;5028696;28;20202;-49
2022/09/08 05:31:00;;;;;;;1.33;0.70;;;16.50;99.90;;;;;;5028515;28;20214;-49
2022/09/08 05:33:27;;;;;;;3.93;1.03;;;16.50;99.90;;;;;;5031127;28;20213;-49
2022/09/08 05:35:55;;;;;;;1.53;0.50;;;16.50;99.90;;;;;;5026593;28;20700;-49
2022/09/08 05:38:22;;;;;;;0.30;0.30;;;16.40;99.90;;;;;;5031070;28;20225;-49
2022/09/08 05:40:49;;;;;;;1.83;0.53;;;16.40;99.90;;;;;;5031545;28;20202;-50
2022/09/08 05:43:19;;;;;;;1.27;0.50;;;16.40;99.90;;;;;;5031327;28;20202;-49
2022/09/08 05:45:49;;;;;;;1.43;0.60;;;16.40;99.90;;;;;;5030017;28;20211;-49
2022/09/08 05:48:19;;;;;;;0.20;0.20;;;16.40;99.90;;;;;;5028540;28;20225;-49
2022/09/08 05:50:46;;;;;;;0.37;0.30;;;16.40;99.90;;;;;;5030976;28;20202;-50
2022/09/08 05:53:15;;;;;;;0.43;0.33;;;16.30;99.90;;;;;;5030741;28;20199;-49
2022/09/08 05:55:42;;;;;;;2.50;0.50;;;16.30;99.90;;;;;;5027754;28;20264;-49
2022/09/08 05:58:11;;;;;;;0.40;0.30;;;16.30;99.90;;;;;;5029007;28;20600;-49
2022/09/08 06:00:38;;;;;;;2.60;0.60;;;16.30;99.90;;;;;;5029513;28;20286;-48
2022/09/08 06:03:07;;;;;;;0.40;0.30;;;16.30;99.90;;;;;;5030334;28;20203;-49
2022/09/08 06:05:35;;;;;;;0.53;0.40;;;16.30;99.90;;;;;;5030152;28;20205;-48
2022/09/08 06:08:03;;;;;;;3.93;0.40;;;16.30;99.90;;;;;;5025168;28;20635;-49
2022/09/08 06:10:35;;;;;;;0.30;0.30;;;16.30;99.90;;;;;;5029812;28;20669;-49
2022/09/08 06:13:02;;;;;;;0.40;0.40;;;16.30;99.90;;;;;;5031597;28;20684;-48
2022/09/08 06:15:29;;;;;;;1.70;0.50;;;16.30;99.90;;;;;;5026838;28;20214;-49
2022/09/08 06:17:58;;;;;;;0.53;0.33;;;16.30;99.90;;;;;;5026624;28;20260;-48
2022/09/08 06:20:26;;;;;;;0.40;0.40;;;16.30;99.90;;;;;;5029115;28;20715;-49
2022/09/08 06:22:53;;;;;;;1.63;0.60;;;16.40;99.90;;;;;;5030630;28;20207;-49
2022/09/08 06:25:20;;;;;;;1.07;0.73;;;16.30;99.90;;;;;;5029438;28;20228;-49
2022/09/08 06:27:54;;;;;;;0.50;0.50;;;16.30;99.90;;;;;;5027833;28;20222;-48
2022/09/08 06:30:22;;;;;;;0.60;0.40;;;16.40;99.90;;;;;;5025858;28;20210;-48
2022/09/08 06:32:53;;;;;;;1.90;1.00;;;16.40;99.90;;;;;;5028432;28;20205;-49
2022/09/08 06:35:24;;;;;;;2.70;0.70;;;16.40;99.90;;;;;;5031580;28;20253;-49
2022/09/08 06:37:55;;;;;;;2.20;0.90;;;16.40;99.90;;;;;;5032110;28;20707;-48
2022/09/08 06:40:26;;;;;;;3.13;0.70;;;16.40;99.90;;;;;;5034196;28;20210;-49
2022/09/08 06:43:00;;;;;;;0.70;0.70;;;16.50;99.90;;;;;;5029388;28;20194;-48
2022/09/08 06:45:30;;;;;;;2.30;0.90;;;16.60;99.90;;;;;;5032420;28;20664;-48
2022/09/08 06:48:24;;;;;;;1.50;0.80;;;16.60;99.90;;;;;;5032633;28;20277;-49
2022/09/08 06:51:25;;;;;;;4.90;1.03;;;16.60;99.90;;;;;;5033396;28;20222;-48
2022/09/08 06:54:05;;;;;;;1.27;0.57;;;16.60;99.90;;;;;;5005144;28;20227;-49
2022/09/08 06:56:44;;;;;;;1.10;1.00;;;16.70;99.90;;;;;;5033250;28;20295;-49
2022/09/08 06:59:21;;;;;;;1.23;0.63;;;16.80;99.90;;;;;;5028935;28;20506;-49
2022/09/08 07:01:58;;;;;;;0.80;0.50;;;16.80;99.90;;;;;;5034031;28;20249;-49
2022/09/08 07:04:36;;;;;;;2.10;0.70;;;16.90;99.90;;;;;;5029166;28;20220;-49
2022/09/08 07:07:12;;;;;;;3.60;0.80;;;16.90;99.90;;;;;;5014567;28;20311;-48
2022/09/08 07:09:46;;;;;;;1.23;0.40;;;16.90;99.90;;;;;;5022720;28;20206;-48
2022/09/08 07:12:32;;;;;;;0.40;0.40;;;16.90;99.90;;;;;;5028283;28;20685;-48
2022/09/08 07:15:22;;;;;;;0.57;0.57;;;16.90;99.90;;;;;;5034266;28;20264;-50
2022/09/08 07:17:54;;;;;;;1.60;0.73;;;17.00;99.90;;;;;;5024814;28;20663;-48
2022/09/08 07:20:22;;;;;;;0.70;0.67;;;17.10;99.90;;;;;;5032103;28;20226;-49
2022/09/08 07:22:52;;;;;;;0.97;0.60;;;17.20;99.90;;;;;;5029461;28;20198;-49
2022/09/08 07:25:28;;;;;;;0.73;0.30;;;17.40;99.90;;;;;;5030305;28;20203;-48
2022/09/08 07:28:02;;;;;;;1.40;0.50;;;17.60;99.90;;;;;;5041515;28;20222;-48
2022/09/08 07:30:29;;;;;;;1.70;0.50;;;17.60;99.90;;;;;;5033233;28;20214;-48
2022/09/08 07:33:02;;;;;;;1.77;0.83;;;17.60;99.90;;;;;;5033918;28;20207;-49
2022/09/08 07:35:44;;;;;;;1.47;0.30;;;17.60;99.90;;;;;;5032716;28;20207;-49
2022/09/08 07:38:20;;;;;;;0.40;0.40;;;17.60;99.90;;;;;;5020980;28;20226;-48
2022/09/08 07:40:52;;;;;;;1.60;0.47;;;17.60;99.90;;;;;;5025006;28;20206;-48
2022/09/08 07:43:20;;;;;;;0.43;0.43;;;17.60;99.90;;;;;;5030514;28;20223;-49
2022/09/08 07:45:50;;;;;;;1.07;0.40;;;17.60;99.90;;;;;;5031095;28;20664;-49
2022/09/08 07:48:30;;;;;;;0.50;0.50;;;17.60;99.90;;;;;;5028195;28;20226;-48
2022/09/08 07:51:05;;;;;;;0.67;0.30;;;17.60;99.90;;;;;;5022066;28;20273;-48
2022/09/08 07:53:43;;;;;;;1.00;0.60;;;17.70;99.90;;;;;;5016152;28;20203;-50
2022/09/08 07:56:15;;;;;;;3.10;0.50;;;17.80;99.90;;;;;;5030205;28;20202;-48
2022/09/08 07:58:52;;;;;;;0.60;0.60;;;17.80;99.90;;;;;;5027136;28;20232;-49
2022/09/08 08:01:33;;;;;;;0.40;0.30;;;17.90;99.90;;;;;;5032949;28;20208;-50
2022/09/08 08:04:18;;;;;;;0.60;0.60;;;17.90;99.90;;;;;;5032950;28;20273;-49
2022/09/08 08:06:49;;;;;;;0.40;0.40;;;17.90;99.90;;;;;;5020951;28;20218;-49
2022/09/08 08:09:28;;;;;;;1.30;1.30;;;18.00;99.90;;;;;;5032840;28;20198;-48
2022/09/08 08:12:06;;;;;;;0.40;0.40;;;18.10;99.90;;;;;;5022635;28;20203;-49
2022/09/08 08:14:41;;;;;;;0.70;0.70;;;18.20;99.90;;;;;;5028754;28;20202;-49
2022/09/08 08:17:38;;;;;;;0.30;0.30;;;18.00;99.90;;;;;;5023607;28;20219;-50
2022/09/08 08:20:22;;;;;;;0.57;0.57;;;18.00;99.90;;;;;;5024702;28;20400;-48
2022/09/08 08:23:31;;;;;;;0.60;0.60;;;17.90;99.90;;;;;;5031068;28;20676;-49
2022/09/08 08:26:07;;;;;;;3.10;0.97;;;18.00;99.90;;;;;;5010427;28;20204;-49
2022/09/08 08:28:41;;;;;;;0.30;0.30;;;18.50;99.90;;;;;;5025294;28;20202;-49
2022/09/08 08:31:24;;;;;;;1.50;0.40;;;19.20;99.90;;;;;;5030915;28;20222;-49
2022/09/08 08:33:57;;;;;;;0.30;0.30;;;19.60;99.90;;;;;;5029362;28;20238;-49
2022/09/08 08:36:27;;;;;;;1.50;0.53;;;19.50;99.90;;;;;;5027476;28;20218;-49
2022/09/08 08:39:08;;;;;;;1.40;0.40;;;19.40;99.90;;;;;;5029440;28;20231;-49
2022/09/08 08:41:48;;;;;;;0.30;0.30;;;19.30;99.90;;;;;;5031345;28;20205;-49
2022/09/08 08:44:28;;;;;;;1.50;0.40;;;19.30;99.90;;;;;;5020756;28;20346;-49
2022/09/08 08:47:20;;;;;;;0.53;0.30;;;19.60;99.90;;;;;;5027833;28;20280;-49
2022/09/08 08:50:24;;;;;;;0.40;0.40;;;20.50;99.90;;;;;;5027721;28;20640;-49
2022/09/08 08:53:15;;;;;;;0.30;0.27;;;21.00;99.90;;;;;;5015576;28;20676;-48
2022/09/08 08:55:53;;;;;;;0.50;0.33;;;21.10;99.90;;;;;;5018972;28;20256;-49
2022/09/08 08:58:42;;;;;;;2.73;0.47;;;21.10;99.90;;;;;;5031515;28;20194;-49
2022/09/08 09:01:24;;;;;;;0.40;0.40;;;21.20;99.90;;;;;;5025073;28;20214;-49
2022/09/08 09:04:09;;;;;;;0.40;0.40;;;21.50;99.90;;;;;;5024756;28;20199;-49
2022/09/08 09:07:08;;;;;;;0.67;0.53;;;21.90;99.90;;;;;;5029506;28;20352;-49
2022/09/08 09:10:01;;;;;;;2.77;0.50;;;22.40;99.90;;;;;;5020783;28;20257;-49
2022/09/08 09:13:10;;;;;;;0.33;0.33;;;22.70;99.90;;;;;;5026432;28;20206;-49
2022/09/08 09:16:02;;;;;;;0.30;0.30;;;22.60;99.90;;;;;;4983438;28;20254;-49
2022/09/08 09:18:59;;;;;;;0.93;0.40;;;22.60;99.90;;;;;;5031794;28;20194;-49
2022/09/08 09:21:48;;;;;;;0.73;0.30;;;23.60;99.90;;;;;;5030306;28;20198;-49
2022/09/08 09:24:22;;;;;;;0.47;0.30;;;24.40;99.90;;;;;;5019637;28;20210;-49
2022/09/08 09:26:53;;;;;;;0.30;0.30;;;24.90;99.90;;;;;;5028818;28;20276;-49
2022/09/08 09:29:22;;;;;;;0.40;0.40;;;25.20;99.90;;;;;;5025038;28;20210;-49
2022/09/08 09:32:35;;;;;;;0.30;0.30;;;25.20;99.90;;;;;;5024276;28;20202;-49
2022/09/08 09:35:30;;;;;;;0.30;0.30;;;25.50;99.90;;;;;;5029612;28;20206;-49
2022/09/08 09:38:31;;;;;;;0.50;0.50;;;25.70;99.90;;;;;;5029015;28;20708;-49
2022/09/08 09:41:38;;;;;;;0.53;0.53;;;25.80;99.90;;;;;;5025933;28;20222;-49
2022/09/08 09:44:25;;;;;;;0.87;0.40;;;25.70;99.90;;;;;;5034197;28;20664;-49
2022/09/08 09:47:27;;;;;;;0.30;0.30;;;25.30;99.90;;;;;;5030187;28;20226;-49
2022/09/08 09:50:22;;;;;;;0.30;0.30;;;25.20;99.90;;;;;;5026201;28;20214;-48
2022/09/08 09:53:01;;;;;;;0.30;0.30;;;25.30;99.90;;;;;;5027646;28;20256;-48
2022/09/08 09:55:46;;;;;;;1.10;0.30;;;24.80;99.90;;;;;;5026419;28;20636;-49
2022/09/08 09:58:53;;;;;;;0.30;0.20;;;25.10;99.90;;;;;;5026114;28;20257;-49
2022/09/08 10:01:37;;;;;;;0.30;0.30;;;25.30;99.90;;;;;;5011364;28;20244;-49
2022/09/08 10:04:33;;;;;;;0.30;0.20;;;25.50;99.90;;;;;;5029283;28;20712;-49
2022/09/08 10:07:39;;;;;;;0.50;0.30;;;26.10;99.90;;;;;;5030740;28;20226;-50
2022/09/08 10:10:30;;;;;;;0.40;0.30;;;26.30;99.90;;;;;;5022367;28;20292;-49
2022/09/08 10:13:33;;;;;;;0.20;0.20;;;26.60;99.90;;;;;;5026487;28;20277;-50
2022/09/08 10:16:35;;;;;;;0.22;0.22;;;27.10;99.90;;;;;;5028991;28;20206;-49
2022/09/08 10:19:35;;;;;;;0.43;0.43;;;27.60;99.90;;;;;;5026452;28;20271;-49
2022/09/08 10:22:29;;;;;;;0.32;0.10;;;27.60;99.90;;;;;;5006579;28;20209;-49
2022/09/08 10:25:32;;;;;;;0.10;0.10;;;27.30;99.90;;;;;;5029975;28;20213;-48
2022/09/08 10:28:39;;;;;;;2.90;0.20;;;26.90;99.90;;;;;;5026068;28;20222;-50
2022/09/08 10:31:33;;;;;;;0.30;0.30;;;26.90;99.90;;;;;;4987201;28;20215;-49
2022/09/08 10:34:29;;;;;;;0.53;0.20;;;27.10;99.90;;;;;;5027215;28;20199;-49
2022/09/08 10:37:05;;;;;;;0.10;0.10;;;26.40;99.90;;;;;;5025992;28;20285;-49
2022/09/08 10:40:00;;;;;;;0.08;0.08;;;26.00;99.90;;;;;;5024430;28;20257;-49
2022/09/08 10:42:50;;;;;;;0.10;0.10;;;25.80;99.90;;;;;;5026800;28;20291;-49
2022/09/08 10:45:23;;;;;;;2.38;0.10;;;26.30;99.90;;;;;;5027468;28;20692;-49
2022/09/08 10:48:21;;;;;;;0.40;0.10;;;26.40;99.90;;;;;;5022373;28;20222;-50
2022/09/08 10:50:52;;;;;;;0.75;0.20;;;26.50;99.90;;;;;;5027904;28;20199;-49
2022/09/08 10:54:01;;;;;;;0.20;0.20;;;26.30;99.90;;;;;;5023816;28;20253;-49
2022/09/08 10:56:29;;;;;;;0.27;0.10;;;25.90;99.90;;;;;;5007126;28;20284;-50
2022/09/08 10:59:33;;;;;;;0.10;0.10;;;25.40;99.90;;;;;;5020344;28;21182;-48
2022/09/08 11:02:32;;;;;;;0.63;0.10;;;25.50;99.90;;;;;;5021909;28;20255;-48
2022/09/08 11:05:32;;;;;;;0.20;0.10;;;25.20;99.90;;;;;;5018646;28;20313;-50
2022/09/08 11:08:30;;;;;;;0.80;0.10;;;25.20;99.90;;;;;;5020561;28;20292;-49
2022/09/08 11:11:27;;;;;;;0.20;0.20;;;25.40;99.90;;;;;;5026835;28;20206;-49
2022/09/08 11:14:02;;;;;;;0.60;0.10;;;25.60;99.90;;;;;;5004231;28;20233;-49
2022/09/08 11:17:12;;;;;;;0.20;0.13;;;25.80;99.90;;;;;;5021941;28;20221;-48
2022/09/08 11:19:46;;;;;;;0.20;0.07;;;25.70;99.90;;;;;;5014808;28;20222;-49
2022/09/08 11:22:26;;;;;;;0.10;0.10;;;25.40;99.90;;;;;;5024161;28;20205;-49
2022/09/08 11:25:18;;;;;;;0.80;0.20;;;25.00;99.90;;;;;;5031667;28;20202;-49
2022/09/08 11:27:51;;;;;;;0.20;0.20;;;24.80;99.90;;;;;;5022512;28;20245;-49
2022/09/08 11:30:22;;;;;;;0.30;0.30;;;24.80;99.90;;;;;;5031746;28;20203;-48
2022/09/08 11:33:08;;;;;;;1.07;0.30;;;24.50;99.90;;;;;;5027087;28;20199;-49
2022/09/08 11:35:50;;;;;;;0.20;0.20;;;24.10;99.90;;;;;;5027451;28;20202;-49
2022/09/08 11:38:33;;;;;;;0.30;0.30;;;23.90;99.90;;;;;;5028119;28;20223;-50
2022/09/08 11:41:57;;;;;;;0.20;0.20;;;23.70;99.90;;;;;;5032039;28;20230;-49
2022/09/08 11:44:48;;;;;;;0.20;0.20;;;23.70;99.90;;;;;;4964115;28;20228;-49
2022/09/08 11:47:52;;;;;;;0.97;0.30;;;23.70;99.90;;;;;;4960406;28;20349;-48
2022/09/08 11:50:35;;;;;;;0.30;0.30;;;23.60;99.90;;;;;;5020500;28;20648;-49
2022/09/08 11:53:33;;;;;;;1.57;0.33;;;23.70;99.90;;;;;;5032955;28;20194;-49
2022/09/08 11:56:20;;;;;;;0.23;0.23;;;23.30;99.90;;;;;;5033122;28;20281;-49
2022/09/08 11:59:07;;;;;;;0.87;0.40;;;23.20;99.90;;;;;;5032691;28;20289;-49
2022/09/08 12:01:45;;;;;;;1.80;0.40;;;23.20;99.90;;;;;;5040825;28;20225;-49
2022/09/08 12:04:37;;;;;;;1.80;0.87;;;23.20;99.90;;;;;;5026977;28;20252;-49
2022/09/08 12:07:30;;;;;;;0.40;0.40;;;23.10;99.90;;;;;;5032655;28;20638;-49
2022/09/08 12:10:13;;;;;;;0.30;0.30;;;23.10;99.90;;;;;;5033135;28;20249;-49
2022/09/08 12:12:50;;;;;;;0.50;0.50;;;23.40;99.90;;;;;;5031414;28;20253;-49
2022/09/08 12:15:36;;;;;;;0.30;0.30;;;23.60;99.90;;;;;;5032553;28;20234;-50
2022/09/08 12:18:13;;;;;;;0.20;0.20;;;23.40;99.90;;;;;;5032290;28;20320;-48
2022/09/08 12:21:12;;;;;;;0.30;0.30;;;23.00;99.90;;;;;;5036061;28;20598;-49
2022/09/08 12:23:49;;;;;;;0.60;0.53;;;22.60;99.90;;;;;;5028270;28;20206;-48
2022/09/08 12:26:28;;;;;;;0.53;0.40;;;22.40;99.90;;;;;;5030293;28;20229;-50
2022/09/08 12:29:32;;;;;;;0.83;0.43;;;22.30;99.90;;;;;;5021296;28;20269;-49
2022/09/08 12:32:19;;;;;;;0.60;0.60;;;22.50;99.90;;;;;;5029524;28;20755;-48
2022/09/08 12:35:08;;;;;;;1.90;0.70;;;22.80;99.90;;;;;;5026124;28;20328;-48
2022/09/08 12:37:59;;;;;;;1.90;0.43;;;23.10;99.90;;;;;;5029656;28;20222;-48
2022/09/08 12:41:05;;;;;;;0.57;0.57;;;23.20;99.90;;;;;;5037730;28;20887;-49
2022/09/08 12:43:40;;;;;;;0.37;0.37;;;23.30;99.90;;;;;;5024281;28;20198;-49
2022/09/08 12:46:23;;;;;;;0.87;0.57;;;23.10;99.90;;;;;;5025698;28;20264;-49
2022/09/08 12:49:13;;;;;;;0.63;0.43;;;23.20;99.90;;;;;;5032965;28;20253;-48
2022/09/08 12:51:40;;;;;;;1.00;0.40;;;23.30;99.90;;;;;;5031413;28;20203;-49
2022/09/08 12:54:28;;;;;;;0.40;0.40;;;23.30;99.90;;;;;;5025216;28;20206;-49
2022/09/08 12:57:29;;;;;;;0.20;0.20;;;23.50;99.90;;;;;;5026893;28;20222;-48
2022/09/08 13:00:03;;;;;;;0.30;0.30;;;23.80;99.90;;;;;;5030598;28;20220;-48
2022/09/08 13:02:59;;;;;;;0.20;0.20;;;23.80;99.90;;;;;;5024660;28;20670;-49
2022/09/08 13:05:43;;;;;;;1.33;0.50;;;23.80;99.90;;;;;;5027797;28;20268;-49
2022/09/08 13:08:27;;;;;;;0.60;0.60;;;23.70;99.90;;;;;;5032608;28;20226;-49
2022/09/08 13:11:07;;;;;;;3.03;0.43;;;23.70;99.90;;;;;;5023623;28;20199;-50
2022/09/08 13:13:43;;;;;;;0.30;0.30;;;23.70;99.90;;;;;;5031549;28;20278;-50
2022/09/08 13:16:31;;;;;;;0.30;0.30;;;23.70;99.90;;;;;;5012774;28;20257;-49
2022/09/08 13:19:09;;;;;;;0.20;0.20;;;23.70;99.90;;;;;;5027419;28;20202;-49
2022/09/08 13:22:01;;;;;;;0.43;0.30;;;23.70;99.90;;;;;;5031533;28;20225;-48
2022/09/08 13:24:35;;;;;;;0.40;0.40;;;23.70;99.90;;;;;;5023761;28;20668;-49
2022/09/08 13:27:13;;;;;;;0.33;0.33;;;23.60;99.90;;;;;;5023195;28;20276;-49
2022/09/08 13:30:02;;;;;;;1.00;0.60;;;23.50;99.90;;;;;;5032074;28;20240;-49
2022/09/08 13:32:50;;;;;;;0.43;0.43;;;23.60;99.90;;;;;;5014253;28;20207;-49
2022/09/08 13:35:30;;;;;;;1.30;0.40;;;23.50;99.90;;;;;;5010607;28;20207;-48
2022/09/08 13:38:28;;;;;;;0.30;0.30;;;23.50;99.90;;;;;;5031281;28;20279;-48
2022/09/08 13:41:11;;;;;;;0.70;0.70;;;23.60;99.90;;;;;;5030434;28;20261;-48
2022/09/08 13:43:55;;;;;;;0.83;0.40;;;23.60;99.90;;;;;;5028664;28;20199;-50